This London Heathrow Airport weather forecast is generated by the Met Office Weather Widget

AirNav RadarBox - Metar Weather
  London Heathrow Metar Weather
 

METAR = EGLL 010520Z 27013KT CAVOK 04/M01 Q1023 NOSIG

STATION........ EGLL
OBSERVED....... Wed Apr 1, 06:20 BST
NOW............ Wed Apr 1, 06:44 BST
AGE............ 24 min ago
WIND........... W at 15 mph
VISIBILITY..... greater than 7 miles
CLOUDS......... clear skies
TEMP........... 39°F (4°C)
WIND CHILL..... 31°F (-1°C)
DEWPT.......... 30°F (-1°C)
HUMIDITY....... 70%
BAROMETER...... 1023 hPa (30.21 in Hg)

Wed Apr 01 2015, sunrise time : 05:40
Wed Apr 01 2015, sunset time : 18:31